Time;durP1;ratioP1;P1;durP2;ratioP2;P2;SDS_P1;SDS_P2;PMS_P1;PMS_P2;Temp;Humidity;BMP_temperature;BMP_pressure;BME280_temperature;BME280_humidity;BME280_pressure;Samples;Min_cycle;Max_cycle;Signal;HPM_P1;HPM_P2
2022/04/02 00:02:04;;;;;;;39.73;6.87;;;;;;;13.75;71.16;99060.91;1698548;84;21040;-62
2022/04/02 00:04:31;;;;;;;43.52;7.35;;;;;;;13.76;71.21;99058.17;1695680;84;20999;-63
2022/04/02 00:06:59;;;;;;;44.08;6.75;;;;;;;13.71;71.58;99057.74;1694309;84;21061;-62
2022/04/02 00:09:28;;;;;;;43.55;6.85;;;;;;;13.66;71.36;99051.28;1694385;84;21043;-63
2022/04/02 00:11:55;;;;;;;37.83;7.75;;;;;;;13.66;71.56;99045.64;1694634;84;21502;-64
2022/04/02 00:14:22;;;;;;;38.17;6.62;;;;;;;13.57;71.74;99036.86;1695297;84;21007;-62
2022/04/02 00:16:52;;;;;;;37.23;7.62;;;;;;;13.54;71.76;99042.27;1694306;84;21016;-62
2022/04/02 00:19:21;;;;;;;44.00;6.85;;;;;;;13.62;71.54;99041.66;1694973;84;21019;-63
2022/04/02 00:21:48;;;;;;;45.25;7.33;;;;;;;13.64;71.10;99038.47;1695778;84;21033;-62
2022/04/02 00:24:16;;;;;;;39.53;7.33;;;;;;;13.62;71.25;99041.20;1698323;84;21028;-62
2022/04/02 00:26:45;;;;;;;44.70;6.75;;;;;;;13.55;71.49;99036.16;1694926;84;21033;-63
2022/04/02 00:29:12;;;;;;;35.85;6.60;;;;;;;13.46;71.75;99029.12;1694447;84;21003;-62
2022/04/02 00:31:40;;;;;;;36.85;6.75;;;;;;;13.41;71.93;99033.86;1698518;84;21033;-62
2022/04/02 00:34:08;;;;;;;34.58;6.60;;;;;;;13.41;71.85;99034.67;1686421;84;21110;-62
2022/04/02 00:36:38;;;;;;;39.85;7.25;;;;;;;13.28;72.26;99026.23;1682452;85;21031;-63
2022/04/02 00:39:08;;;;;;;40.75;7.60;;;;;;;13.28;72.23;99022.36;1680402;85;21080;-62
2022/04/02 00:41:35;;;;;;;36.42;7.10;;;;;;;13.27;72.18;99022.47;1689483;84;21084;-63
2022/04/02 00:44:13;;;;;;;44.70;7.75;;;;;;;13.25;71.94;99018.71;1681610;85;21047;-62
2022/04/02 00:46:43;;;;;;;42.33;7.70;;;;;;;13.33;71.34;99016.37;1681641;85;21051;-63
2022/04/02 00:49:14;;;;;;;40.50;7.08;;;;;;;13.37;71.14;99015.19;1681690;85;21020;-62
2022/04/02 00:51:44;;;;;;;36.90;5.95;;;;;;;13.31;71.13;99011.80;1681686;85;21563;-62
2022/04/02 00:54:15;;;;;;;48.02;6.58;;;;;;;13.26;71.21;99012.62;1681188;85;21094;-62
2022/04/02 00:56:44;;;;;;;40.80;6.62;;;;;;;13.15;71.66;99011.34;1699811;84;21012;-62
2022/04/02 00:59:12;;;;;;;44.60;6.87;;;;;;;13.09;71.94;99010.53;1699570;84;21517;-62
2022/04/02 01:01:40;;;;;;;43.45;7.05;;;;;;;13.03;72.04;99006.66;1699919;84;21024;-61
2022/04/02 01:04:10;;;;;;;36.30;6.83;;;;;;;13.07;72.11;99008.53;1699576;84;21064;-62
2022/04/02 01:06:46;;;;;;;37.28;7.33;;;;;;;13.04;72.02;99016.06;1699674;84;21052;-63
2022/04/02 01:09:16;;;;;;;39.95;7.58;;;;;;;12.96;72.16;99005.03;1699618;84;21560;-62
2022/04/02 01:11:48;;;;;;;35.28;6.37;;;;;;;12.93;72.28;99001.38;1700079;84;21572;-62
2022/04/02 01:14:16;;;;;;;37.50;6.50;;;;;;;12.96;72.73;99003.73;1699587;84;21056;-62
2022/04/02 01:16:47;;;;;;;37.60;7.20;;;;;;;12.86;73.27;98996.36;1699763;84;21111;-63
2022/04/02 01:19:17;;;;;;;40.17;7.28;;;;;;;12.80;74.03;98994.25;1699448;84;21049;-63
2022/04/02 01:21:48;;;;;;;40.33;7.12;;;;;;;12.73;74.61;98980.16;1699536;84;21052;-63
2022/04/02 01:24:22;;;;;;;37.33;6.83;;;;;;;12.67;75.26;98980.64;1699620;84;21071;-62
2022/04/02 01:26:53;;;;;;;36.60;7.30;;;;;;;12.68;75.76;98977.95;1699584;84;21067;-62
2022/04/02 01:29:21;;;;;;;37.73;6.97;;;;;;;12.65;76.10;98979.94;1699731;84;21032;-62
2022/04/02 01:31:51;;;;;;;38.48;7.20;;;;;;;12.60;76.71;98978.53;1699661;84;21056;-62
2022/04/02 01:34:21;;;;;;;34.60;6.03;;;;;;;12.53;77.38;98978.66;1699924;84;21048;-62
2022/04/02 01:36:48;;;;;;;37.28;6.70;;;;;;;12.42;77.92;98973.02;1699567;84;21600;-62
2022/04/02 01:39:24;;;;;;;42.78;6.10;;;;;;;12.45;78.33;98982.75;1699625;84;21063;-62
2022/04/02 01:41:51;;;;;;;42.20;7.08;;;;;;;12.39;78.96;98976.32;1699641;84;21084;-62
2022/04/02 01:44:20;;;;;;;35.68;5.87;;;;;;;12.33;79.36;98975.50;1699856;84;21097;-62
2022/04/02 01:46:49;;;;;;;31.65;5.78;;;;;;;12.36;79.88;98964.45;1699610;84;21556;-62
2022/04/02 01:49:18;;;;;;;38.17;6.50;;;;;;;12.36;80.22;98968.80;1699545;84;21063;-62
2022/04/02 01:51:46;;;;;;;34.65;5.70;;;;;;;12.40;80.84;98964.56;1699841;84;21056;-62
2022/04/02 01:54:17;;;;;;;31.85;6.58;;;;;;;12.36;81.55;98963.16;1699760;84;21079;-61
2022/04/02 01:56:45;;;;;;;37.05;6.60;;;;;;;12.33;82.93;98966.47;1699737;84;21059;-61
2022/04/02 01:59:13;;;;;;;37.80;6.47;;;;;;;12.34;83.95;98958.59;1699714;84;21016;-62
2022/04/02 02:01:42;;;;;;;31.95;6.58;;;;;;;12.23;85.69;98950.86;1699750;84;21105;-61
2022/04/02 02:04:11;;;;;;;48.48;6.83;;;;;;;12.19;87.22;98948.97;1699913;84;21099;-61
2022/04/02 02:06:39;;;;;;;39.58;6.95;;;;;;;12.21;88.38;98949.67;1699903;84;21024;-61
2022/04/02 02:09:08;;;;;;;33.02;6.62;;;;;;;12.24;88.96;98948.61;1700083;84;21044;-61
2022/04/02 02:11:55;;;;;;;35.85;6.75;;;;;;;12.22;89.29;98938.41;1699714;84;21548;-61
2022/04/02 02:14:23;;;;;;;40.08;7.40;;;;;;;12.25;89.36;98935.23;1699890;84;21060;-61
2022/04/02 02:16:58;;;;;;;46.95;8.88;;;;;;;12.20;90.22;98934.30;1694894;84;21167;-61
2022/04/02 02:19:25;;;;;;;42.93;11.03;;;;;;;12.21;91.37;98920.01;1699908;84;21083;-61
2022/04/02 02:21:52;;;;;;;35.55;6.72;;;;;;;12.09;92.75;98911.10;1699792;84;21067;-61
2022/04/02 02:24:21;;;;;;;38.17;7.70;;;;;;;12.08;93.43;98918.00;1699786;84;21065;-61
2022/04/02 02:26:48;;;;;;;43.10;8.83;;;;;;;12.05;94.04;98914.85;1700178;84;21520;-62
2022/04/02 02:29:17;;;;;;;35.15;6.80;;;;;;;12.01;94.51;98906.52;1699906;84;21092;-61
2022/04/02 02:31:45;;;;;;;36.93;6.92;;;;;;;12.08;94.28;98907.67;1699900;84;21071;-62
2022/04/02 02:37:00;;;;;;;37.05;7.20;;;;;;;12.13;94.08;98906.06;1702635;84;21027;-61
2022/04/02 02:39:27;;;;;;;38.35;8.00;;;;;;;12.06;94.67;98912.13;1703159;84;21050;-61
2022/04/02 02:42:04;;;;;;;36.68;6.80;;;;;;;11.96;95.24;98914.61;1701868;84;21094;-61
2022/04/02 02:44:34;;;;;;;39.58;7.67;;;;;;;12.00;95.57;98917.76;1702712;84;21043;-62
2022/04/02 02:47:09;;;;;;;33.38;6.35;;;;;;;11.99;95.74;98926.45;1701745;84;21114;-61
2022/04/02 02:49:47;;;;;;;36.48;7.22;;;;;;;12.00;95.92;98939.23;1703225;84;21070;-61
2022/04/02 02:52:16;;;;;;;39.35;6.65;;;;;;;11.90;96.57;98938.28;1702670;84;21054;-61
2022/04/02 02:54:45;;;;;;;40.43;6.40;;;;;;;11.91;96.73;98940.38;1702954;84;21130;-61
2022/04/02 02:57:13;;;;;;;37.67;7.00;;;;;;;11.90;97.00;98935.70;1703030;84;21043;-61
2022/04/02 02:59:44;;;;;;;45.17;6.60;;;;;;;11.89;97.07;98930.65;1702926;84;21059;-61
2022/04/02 03:02:13;;;;;;;43.50;7.17;;;;;;;11.94;96.87;98923.38;1703406;84;21046;-61
2022/04/02 03:04:43;;;;;;;39.92;6.72;;;;;;;11.95;96.99;98912.14;1702920;84;21545;-62
2022/04/02 03:07:12;;;;;;;31.97;6.28;;;;;;;11.98;96.67;98904.16;1702194;84;21054;-61
2022/04/02 03:09:42;;;;;;;32.38;6.33;;;;;;;12.02;96.58;98903.83;1702998;84;21042;-61
2022/04/02 03:12:11;;;;;;;31.90;5.92;;;;;;;12.02;96.70;98901.70;1702923;84;21547;-61
2022/04/02 03:14:38;;;;;;;42.17;6.70;;;;;;;12.07;96.49;98904.77;1703212;84;21081;-61
2022/04/02 03:17:09;;;;;;;35.03;6.45;;;;;;;12.06;96.67;98914.71;1702889;84;21086;-61
2022/04/02 03:19:37;;;;;;;31.30;6.08;;;;;;;12.08;96.76;98907.67;1703234;84;20983;-61
2022/04/02 03:22:06;;;;;;;36.53;7.15;;;;;;;12.16;96.35;98904.52;1702960;84;21055;-61
2022/04/02 03:24:34;;;;;;;41.00;6.80;;;;;;;12.22;95.90;98902.77;1703372;84;21047;-62
2022/04/02 03:27:04;;;;;;;35.88;6.80;;;;;;;12.16;96.13;98896.78;1703351;84;21479;-62
2022/04/02 03:29:33;;;;;;;37.30;6.90;;;;;;;12.10;96.37;98903.22;1702760;84;21047;-62
2022/04/02 03:32:02;;;;;;;46.65;6.30;;;;;;;12.05;97.10;98914.38;1702926;84;21011;-61
2022/04/02 03:34:31;;;;;;;39.50;6.95;;;;;;;12.03;97.55;98916.25;1702994;84;21059;-61
2022/04/02 03:36:59;;;;;;;36.08;6.72;;;;;;;12.02;97.81;98900.41;1702385;84;21091;-61
2022/04/02 03:39:27;;;;;;;34.00;6.17;;;;;;;12.00;98.01;98896.68;1702580;84;21067;-61
2022/04/02 03:41:56;;;;;;;36.10;6.65;;;;;;;12.02;98.16;98896.09;1702452;84;21025;-61
2022/04/02 03:44:23;;;;;;;40.90;6.62;;;;;;;12.02;98.28;98897.38;1702697;84;21056;-61
2022/04/02 03:47:09;;;;;;;38.48;6.95;;;;;;;12.05;98.11;98888.58;1702441;84;21639;-61
2022/04/02 03:49:43;;;;;;;34.33;6.40;;;;;;;12.18;97.79;98892.33;1702425;84;21546;-61
2022/04/02 03:52:11;;;;;;;34.80;6.75;;;;;;;12.16;97.79;98889.86;1702230;84;21544;-61
2022/04/02 03:54:42;;;;;;;38.60;6.90;;;;;;;12.14;97.77;98889.16;1702486;84;21088;-61
2022/04/02 03:57:15;;;;;;;40.05;6.67;;;;;;;12.21;97.95;98890.81;1702537;84;21083;-61
2022/04/02 03:59:43;;;;;;;44.53;6.97;;;;;;;12.27;97.62;98884.38;1702712;84;21044;-61
2022/04/02 04:02:12;;;;;;;34.33;6.58;;;;;;;12.28;97.32;98874.39;1702585;84;21060;-61
2022/04/02 04:04:41;;;;;;;41.18;6.67;;;;;;;12.28;97.24;98876.49;1702391;84;21100;-61
2022/04/02 04:07:10;;;;;;;30.17;6.33;;;;;;;12.34;97.06;98863.59;1702419;84;21551;-61
2022/04/02 04:09:42;;;;;;;31.25;6.12;;;;;;;12.36;96.67;98859.95;1702570;84;21027;-61
2022/04/02 04:12:13;;;;;;;33.67;6.72;;;;;;;12.49;95.96;98861.12;1699983;84;21060;-61
2022/04/02 04:14:42;;;;;;;41.58;6.65;;;;;;;12.56;95.24;98856.28;1702522;84;21036;-61
2022/04/02 04:17:09;;;;;;;35.83;6.53;;;;;;;12.59;94.66;98862.03;1702416;84;21595;-61
2022/04/02 04:19:37;;;;;;;37.85;7.67;;;;;;;12.66;94.20;98867.52;1702459;84;21032;-61
2022/04/02 04:22:06;;;;;;;40.70;7.10;;;;;;;12.63;93.98;98871.17;1702594;84;21056;-61
2022/04/02 04:24:34;;;;;;;33.75;6.12;;;;;;;12.59;94.19;98868.48;1702437;84;21588;-61
2022/04/02 04:27:04;;;;;;;34.63;6.40;;;;;;;12.66;94.10;98866.71;1702559;84;21059;-61
2022/04/02 04:29:32;;;;;;;28.83;5.62;;;;;;;12.73;94.00;98871.28;1702626;84;21072;-61
2022/04/02 04:32:00;;;;;;;35.28;7.25;;;;;;;12.76;93.71;98876.66;1702649;84;21516;-61
2022/04/02 04:34:27;;;;;;;37.45;7.08;;;;;;;12.68;94.08;98867.41;1702548;84;21055;-61
2022/04/02 04:36:55;;;;;;;28.90;6.00;;;;;;;12.79;93.94;98876.40;1702513;84;21127;-61
2022/04/02 04:39:23;;;;;;;34.43;7.03;;;;;;;12.78;93.85;98884.62;1702351;84;21024;-61
2022/04/02 04:41:52;;;;;;;35.30;6.10;;;;;;;12.82;93.86;98898.13;1702126;84;21544;-61
2022/04/02 04:44:21;;;;;;;34.00;6.78;;;;;;;12.80;94.33;98887.09;1702467;84;21583;-61
2022/04/02 04:46:52;;;;;;;33.50;6.70;;;;;;;12.76;94.36;98880.05;1702447;84;21075;-61
2022/04/02 04:49:20;;;;;;;39.25;6.40;;;;;;;12.88;94.04;98882.62;1702526;84;21079;-61
2022/04/02 04:51:56;;;;;;;36.08;6.67;;;;;;;12.98;93.95;98871.90;1701924;84;21588;-61
2022/04/02 04:54:24;;;;;;;46.13;7.08;;;;;;;13.07;93.52;98870.33;1702299;84;21148;-61
2022/04/02 04:56:53;;;;;;;45.65;7.33;;;;;;;13.16;92.71;98872.19;1702581;84;21084;-61
2022/04/02 04:59:22;;;;;;;35.52;6.67;;;;;;;13.27;92.49;98869.53;1702411;84;21056;-61
2022/04/02 05:01:52;;;;;;;39.67;6.72;;;;;;;13.29;92.05;98867.67;1699570;84;21115;-61
2022/04/02 05:04:20;;;;;;;33.35;6.87;;;;;;;13.39;91.95;98858.70;1699315;84;20986;-62
2022/04/02 05:06:49;;;;;;;42.35;6.67;;;;;;;13.37;92.33;98863.17;1699148;84;21027;-61
2022/04/02 05:09:18;;;;;;;43.85;7.25;;;;;;;13.36;92.47;98867.53;1673200;84;21028;-61
2022/04/02 05:11:47;;;;;;;35.25;6.40;;;;;;;13.47;92.23;98861.47;1700619;84;21047;-61
2022/04/02 05:14:16;;;;;;;39.50;6.60;;;;;;;13.62;92.12;98860.66;1701950;83;21041;-61
2022/04/02 05:16:46;;;;;;;37.05;6.87;;;;;;;13.73;91.75;98855.91;1702957;83;21526;-61
2022/04/02 05:19:16;;;;;;;42.55;6.60;;;;;;;13.90;91.41;98860.95;1702226;84;21054;-61
2022/04/02 05:21:46;;;;;;;41.83;7.47;;;;;;;14.04;90.70;98861.90;1703376;84;21049;-62
2022/04/02 05:24:16;;;;;;;41.58;7.00;;;;;;;14.01;90.37;98868.64;1664269;85;21055;-61
2022/04/02 05:26:47;;;;;;;46.90;7.60;;;;;;;14.04;90.45;98860.61;1677961;84;21043;-61
2022/04/02 05:29:16;;;;;;;42.70;7.15;;;;;;;14.09;90.74;98869.27;1668912;86;21058;-61
2022/04/02 05:31:46;;;;;;;39.53;7.10;;;;;;;14.13;91.03;98868.89;1663753;86;21596;-61
2022/04/02 05:34:15;;;;;;;41.05;7.37;;;;;;;14.14;91.18;98862.75;1676181;85;21531;-63
2022/04/02 05:36:44;;;;;;;41.53;7.40;;;;;;;14.17;91.78;98861.66;1710528;84;21031;-63
2022/04/02 05:39:12;;;;;;;40.85;7.00;;;;;;;14.25;92.33;98859.72;1704440;84;21040;-62
2022/04/02 05:41:43;;;;;;;39.27;7.20;;;;;;;14.32;92.65;98855.67;1704806;84;21043;-63
2022/04/02 05:44:11;;;;;;;51.45;7.53;;;;;;;14.47;92.77;98853.03;1697106;84;21091;-61
2022/04/02 05:46:40;;;;;;;40.15;7.25;;;;;;;14.61;92.52;98855.75;1697984;84;21099;-63
2022/04/02 05:49:07;;;;;;;48.42;7.80;;;;;;;14.70;92.51;98858.84;1703582;84;21048;-61
2022/04/02 05:51:35;;;;;;;41.70;8.18;;;;;;;14.80;92.25;98873.08;1704274;84;21020;-61
2022/04/02 05:54:03;;;;;;;33.18;7.05;;;;;;;14.88;92.10;98875.00;1702972;84;21063;-62
2022/04/02 05:56:30;;;;;;;41.42;8.83;;;;;;;14.98;92.07;98861.12;1662482;86;21495;-63
2022/04/02 05:58:59;;;;;;;39.15;8.73;;;;;;;15.05;92.35;98863.16;1693090;84;21524;-62
2022/04/02 06:01:28;;;;;;;37.05;7.30;;;;;;;15.16;92.03;98866.90;1694649;84;21005;-63
2022/04/02 06:03:56;;;;;;;44.35;7.65;;;;;;;15.24;92.27;98864.44;1695288;84;21022;-63
2022/04/02 06:06:24;;;;;;;36.88;7.10;;;;;;;15.40;92.54;98867.28;1697523;83;21088;-61
2022/04/02 06:08:51;;;;;;;34.65;7.55;;;;;;;15.54;91.74;98863.92;1688915;84;21063;-62
2022/04/02 06:11:20;;;;;;;31.93;7.15;;;;;;;15.74;91.61;98864.25;1687127;85;21048;-61
2022/04/02 06:13:47;;;;;;;35.20;7.15;;;;;;;15.68;91.75;98862.67;1687047;85;21059;-61
2022/04/02 06:16:14;;;;;;;39.53;7.35;;;;;;;15.78;92.27;98882.46;1687268;85;21063;-62
2022/04/02 06:18:42;;;;;;;37.40;6.83;;;;;;;15.79;92.22;98878.92;1687182;85;21060;-62
2022/04/02 06:21:11;;;;;;;42.17;7.58;;;;;;;15.85;92.21;98876.70;1687431;85;21509;-61
2022/04/02 06:23:40;;;;;;;38.98;6.78;;;;;;;16.14;91.68;98873.53;1664489;86;21073;-62
2022/04/02 06:26:07;;;;;;;41.63;7.15;;;;;;;16.39;90.31;98859.54;1664500;86;21051;-61
2022/04/02 06:28:34;;;;;;;27.70;6.17;;;;;;;16.48;89.23;98854.75;1664727;86;21048;-61
2022/04/02 06:31:01;;;;;;;31.97;6.50;;;;;;;16.46;89.87;98858.47;1664489;86;21016;-61
2022/04/02 06:33:32;;;;;;;36.05;6.55;;;;;;;16.46;89.53;98867.07;1637962;86;21019;-62
2022/04/02 06:36:00;;;;;;;31.48;7.22;;;;;;;16.58;89.81;98865.09;1716009;83;21035;-61
2022/04/02 06:38:27;;;;;;;37.45;7.15;;;;;;;16.78;89.39;98863.19;1712183;83;21007;-62
2022/04/02 06:40:56;;;;;;;33.60;6.47;;;;;;;16.98;88.65;98868.60;1712520;83;21504;-61
2022/04/02 06:43:23;;;;;;;27.62;5.97;;;;;;;17.09;87.46;98861.54;1708785;83;21047;-62
2022/04/02 06:46:03;;;;;;;32.60;6.03;;;;;;;17.28;86.48;98867.08;1712212;83;21035;-62
2022/04/02 06:48:30;;;;;;;24.92;5.40;;;;;;;17.50;85.33;98880.05;1711865;84;21094;-63
2022/04/02 06:51:01;;;;;;;27.22;6.15;;;;;;;17.61;85.17;98872.82;1712354;83;21055;-62
2022/04/02 06:53:29;;;;;;;30.15;5.80;;;;;;;17.77;84.34;98878.61;1711978;84;21158;-62
2022/04/02 06:55:57;;;;;;;29.25;5.58;;;;;;;17.94;83.60;98866.55;1712166;84;21051;-62
2022/04/02 06:58:35;;;;;;;29.60;5.62;;;;;;;18.14;83.25;98868.41;1712297;84;21059;-62
2022/04/02 07:01:02;;;;;;;26.75;5.55;;;;;;;18.28;81.93;98876.12;1712381;84;21033;-62
2022/04/02 07:03:30;;;;;;;28.92;5.20;;;;;;;18.32;80.65;98876.14;1711350;83;21035;-62
2022/04/02 07:05:57;;;;;;;22.32;5.35;;;;;;;18.52;81.21;98871.48;1711283;84;21070;-62
2022/04/02 07:08:26;;;;;;;30.48;5.20;;;;;;;18.72;79.94;98872.02;1685641;84;21082;-63
2022/04/02 07:10:53;;;;;;;27.42;5.62;;;;;;;18.72;78.37;98871.22;1708297;83;21092;-62
2022/04/02 07:13:21;;;;;;;23.05;4.92;;;;;;;18.71;77.92;98869.08;1700248;84;21550;-62
2022/04/02 07:15:50;;;;;;;35.83;5.70;;;;;;;18.88;78.46;98872.58;1697600;84;21075;-62
2022/04/02 07:18:21;;;;;;;20.35;4.90;;;;;;;19.01;76.79;98866.88;1700531;84;21442;-62
2022/04/02 07:20:51;;;;;;;22.32;5.20;;;;;;;19.25;75.32;98861.34;1700257;84;21051;-62
2022/04/02 07:23:20;;;;;;;20.20;5.47;;;;;;;19.36;74.62;98861.00;1700531;84;21183;-62
2022/04/02 07:25:49;;;;;;;20.08;5.78;;;;;;;19.32;73.71;98868.36;1674541;84;21052;-63
2022/04/02 07:28:16;;;;;;;25.68;5.35;;;;;;;19.36;73.95;98868.82;1700471;84;21521;-63
2022/04/02 07:30:46;;;;;;;18.82;4.78;;;;;;;19.52;73.45;98868.00;1700150;84;21017;-63
2022/04/02 07:33:16;;;;;;;22.32;6.22;;;;;;;19.69;71.72;98855.72;1700308;84;21004;-62
2022/04/02 07:36:04;;;;;;;20.82;5.22;;;;;;;19.74;71.34;98854.27;1700224;84;22108;-62
2022/04/02 07:38:53;;;;;;;16.87;4.03;;;;;;;19.68;69.94;98836.64;1700279;84;21052;-62
2022/04/02 07:41:41;;;;;;;14.65;3.62;;;;;;;19.94;69.41;98850.80;1700037;84;21036;-63
2022/04/02 07:44:20;;;;;;;19.42;4.40;;;;;;;19.97;67.49;98854.39;1700532;84;21607;-63
2022/04/02 07:46:48;;;;;;;13.22;4.10;;;;;;;19.99;67.32;98855.03;1700401;84;21076;-61
2022/04/02 07:49:20;;;;;;;15.95;3.72;;;;;;;20.34;68.30;98853.42;1700506;84;21044;-62
2022/04/02 07:51:53;;;;;;;17.02;4.00;;;;;;;20.67;67.02;98859.30;1700346;84;21091;-62
2022/04/02 07:54:26;;;;;;;14.80;3.75;;;;;;;20.53;64.92;98847.74;1700407;84;21052;-63
2022/04/02 07:57:03;;;;;;;12.23;3.70;;;;;;;20.55;65.75;98849.69;1701147;84;21458;-63
2022/04/02 07:59:38;;;;;;;13.53;3.42;;;;;;;20.79;64.19;98850.06;1697236;83;20988;-63
2022/04/02 08:02:36;;;;;;;9.55;3.02;;;;;;;20.81;63.71;98847.28;1697268;84;21004;-63
2022/04/02 08:04:38;;;;;;;9.33;2.47;;;;;;;20.81;63.23;98842.86;1697460;84;21042;-63
2022/04/02 08:07:07;;;;;;;11.80;2.75;;;;;;;20.90;62.64;98840.98;1701098;84;21019;-63
2022/04/02 08:09:36;;;;;;;11.28;2.58;;;;;;;20.78;62.49;98841.91;1700056;84;21011;-63
2022/04/02 08:12:05;;;;;;;9.58;2.80;;;;;;;20.97;62.82;98841.92;1694448;84;21088;-62
2022/04/02 08:14:36;;;;;;;13.35;2.95;;;;;;;21.18;62.48;98842.56;1680607;84;21062;-63
2022/04/02 08:17:07;;;;;;;11.57;2.98;;;;;;;21.17;61.50;98835.72;1693387;84;21093;-63
2022/04/02 08:19:35;;;;;;;13.48;3.02;;;;;;;21.18;61.47;98826.86;1697335;84;21039;-63
2022/04/02 08:22:03;;;;;;;14.18;3.40;;;;;;;21.28;61.36;98825.81;1701204;84;21318;-63
2022/04/02 08:24:31;;;;;;;15.32;2.95;;;;;;;21.43;60.92;98838.94;1697162;84;21005;-62
2022/04/02 08:27:06;;;;;;;15.05;2.65;;;;;;;21.26;60.26;98819.94;1664124;86;21086;-62
2022/04/02 08:30:08;;;;;;;13.38;2.70;;;;;;;21.33;60.69;98824.30;1639034;87;21044;-62
2022/04/02 08:33:11;;;;;;;10.55;3.05;;;;;;;21.37;60.81;98829.48;1668523;85;21027;-60
2022/04/02 08:36:00;;;;;;;20.97;3.62;;;;;;;21.27;60.59;98818.47;1661512;86;22062;-61
2022/04/02 08:39:01;;;;;;;14.70;3.08;;;;;;;21.01;60.56;98822.28;1656816;85;21050;-62
2022/04/02 08:42:14;;;;;;;13.13;3.47;;;;;;;20.90;61.44;98816.64;1690626;84;21059;-62
2022/04/02 08:44:58;;;;;;;13.68;2.85;;;;;;;20.77;61.25;98812.01;1686505;85;21028;-63
2022/04/02 08:48:01;;;;;;;11.85;3.00;;;;;;;21.04;60.37;98809.33;1686230;85;21028;-63
2022/04/02 08:50:34;;;;;;;10.98;3.10;;;;;;;21.21;59.89;98808.71;1671528;86;21187;-63
2022/04/02 08:53:38;;;;;;;13.65;3.25;;;;;;;21.32;60.24;98816.61;1671686;86;21094;-62
2022/04/02 08:56:09;;;;;;;14.40;3.58;;;;;;;21.62;59.57;98804.39;1682586;85;21071;-62
2022/04/02 08:59:00;;;;;;;15.90;3.75;;;;;;;21.66;59.55;98792.56;1686626;85;21106;-62
2022/04/02 09:01:35;;;;;;;10.23;3.58;;;;;;;21.81;59.62;98795.16;1686188;85;21056;-62
2022/04/02 09:04:46;;;;;;;10.55;3.40;;;;;;;21.57;59.40;98778.76;1686607;85;21050;-62
2022/04/02 09:08:08;;;;;;;11.90;3.52;;;;;;;21.60;59.68;98789.36;1686317;85;21524;-62
2022/04/02 09:11:08;;;;;;;14.90;4.15;;;;;;;21.57;59.21;98786.62;1686260;85;21083;-62
2022/04/02 09:14:14;;;;;;;13.10;3.40;;;;;;;21.56;59.44;98787.59;1686160;85;21031;-62
2022/04/02 09:17:21;;;;;;;13.43;3.02;;;;;;;21.97;58.44;98805.44;1686620;85;21059;-62
2022/04/02 09:19:59;;;;;;;17.27;4.10;;;;;;;21.86;57.98;98805.09;1686353;85;21635;-62
2022/04/02 09:22:51;;;;;;;11.53;3.27;;;;;;;21.98;58.19;98814.94;1685999;85;21043;-61
2022/04/02 09:25:43;;;;;;;14.73;3.37;;;;;;;21.99;57.80;98810.00;1686282;85;21091;-62
2022/04/02 09:28:47;;;;;;;15.65;3.30;;;;;;;22.15;57.12;98813.42;1686500;85;21122;-62
2022/04/02 09:31:34;;;;;;;13.50;3.70;;;;;;;22.18;57.12;98809.11;1687379;84;21031;-62
2022/04/02 09:34:22;;;;;;;12.10;3.45;;;;;;;22.06;58.01;98826.30;1688551;85;21524;-62
2022/04/02 09:37:09;;;;;;;21.68;3.98;;;;;;;21.84;57.78;98809.70;1688148;85;21051;-62
2022/04/02 09:39:48;;;;;;;17.55;4.35;;;;;;;21.57;58.34;98811.48;1688509;85;21107;-62
2022/04/02 09:42:38;;;;;;;16.57;4.28;;;;;;;21.43;58.63;98824.55;1688202;85;21051;-62
2022/04/02 09:45:14;;;;;;;16.97;3.95;;;;;;;21.16;59.51;98839.81;1688756;85;21087;-62
2022/04/02 09:47:49;;;;;;;12.60;3.80;;;;;;;20.91;60.65;98843.94;1688017;85;21080;-63
2022/04/02 09:50:21;;;;;;;19.55;4.78;;;;;;;20.93;61.00;98841.16;1688641;85;21098;-62
2022/04/02 09:53:09;;;;;;;18.82;4.37;;;;;;;20.94;61.99;98842.77;1688495;85;21081;-62
2022/04/02 09:56:16;;;;;;;14.83;3.95;;;;;;;21.48;61.51;98843.16;1688800;85;21067;-61
2022/04/02 09:59:09;;;;;;;18.15;4.28;;;;;;;22.28;60.56;98841.11;1688581;84;21059;-62
2022/04/02 10:02:04;;;;;;;18.40;4.03;;;;;;;22.06;59.50;98838.09;1695114;83;21011;-63
2022/04/02 10:04:42;;;;;;;17.92;4.12;;;;;;;21.79;60.23;98835.94;1701583;84;21101;-62
2022/04/02 10:07:28;;;;;;;16.00;3.98;;;;;;;21.37;62.64;98831.27;1700481;84;22143;-63
2022/04/02 10:09:56;;;;;;;15.88;4.22;;;;;;;21.42;62.37;98827.64;1633700;84;21110;-62
2022/04/02 10:12:29;;;;;;;22.80;4.80;;;;;;;21.45;63.06;98823.40;1701776;84;21050;-62
2022/04/02 10:14:59;;;;;;;13.97;4.13;;;;;;;21.81;61.77;98812.19;1701911;84;21148;-62
2022/04/02 10:17:28;;;;;;;20.08;5.05;;;;;;;21.70;61.76;98806.11;1701829;84;21058;-63
2022/04/02 10:19:57;;;;;;;22.30;5.12;;;;;;;21.52;62.27;98806.47;1701451;84;21034;-63
2022/04/02 10:22:46;;;;;;;24.85;5.37;;;;;;;21.94;61.34;98787.98;1702014;84;21051;-62
2022/04/02 10:25:15;;;;;;;18.15;4.80;;;;;;;22.35;61.49;98786.96;1701744;84;21063;-62
2022/04/02 10:27:45;;;;;;;29.50;5.70;;;;;;;22.56;59.52;98772.23;1713228;83;21098;-63
2022/04/02 10:30:15;;;;;;;22.07;4.90;;;;;;;22.58;59.99;98755.30;1719002;83;21103;-62
2022/04/02 10:32:57;;;;;;;25.70;5.37;;;;;;;22.68;59.05;98748.94;1694887;83;21015;-62
2022/04/02 10:35:27;;;;;;;20.90;5.42;;;;;;;22.80;58.71;98752.67;1719063;83;21055;-62
2022/04/02 10:38:12;;;;;;;20.30;5.08;;;;;;;22.67;58.16;98741.58;1717221;83;21055;-62
2022/04/02 10:40:52;;;;;;;29.55;5.25;;;;;;;22.51;57.71;98739.22;1712771;83;21075;-63
2022/04/02 10:43:29;;;;;;;24.30;5.25;;;;;;;22.60;57.72;98724.45;1713027;84;21027;-62
2022/04/02 10:46:09;;;;;;;22.45;4.75;;;;;;;22.79;56.76;98720.39;1712813;84;21047;-62
2022/04/02 10:49:00;;;;;;;23.32;4.97;;;;;;;22.80;57.23;98719.88;1712988;83;21119;-63
2022/04/02 10:51:32;;;;;;;19.80;4.70;;;;;;;22.74;56.01;98726.69;1713124;84;21044;-62
2022/04/02 10:54:12;;;;;;;21.35;4.40;;;;;;;22.79;56.02;98719.59;1712970;84;21110;-63
2022/04/02 10:56:47;;;;;;;26.65;4.37;;;;;;;22.87;53.98;98714.20;1716171;83;21112;-62
2022/04/02 10:59:19;;;;;;;24.90;4.28;;;;;;;22.96;54.64;98699.91;1688582;84;21110;-62
2022/04/02 11:01:52;;;;;;;16.65;4.12;;;;;;;22.95;54.56;98697.47;1680274;85;21081;-62
2022/04/02 11:04:57;;;;;;;25.97;4.83;;;;;;;23.24;53.99;98695.68;1717271;83;21068;-62
2022/04/02 11:07:31;;;;;;;25.85;5.12;;;;;;;23.23;53.85;98683.03;1717064;83;21132;-62
2022/04/02 11:10:00;;;;;;;33.50;5.70;;;;;;;22.94;54.19;98687.48;1717203;83;21061;-62
2022/04/02 11:12:41;;;;;;;20.65;4.47;;;;;;;22.69;55.18;98688.91;1716825;83;21084;-63
2022/04/02 11:15:27;;;;;;;27.02;5.58;;;;;;;22.64;56.10;98686.87;1717132;83;21686;-62
2022/04/02 11:17:59;;;;;;;28.07;5.12;;;;;;;22.82;56.03;98703.95;1717338;83;21068;-62
2022/04/02 11:20:31;;;;;;;24.65;5.83;;;;;;;23.07;55.29;98692.03;1717211;83;21102;-62
2022/04/02 11:23:16;;;;;;;;;;;;;;;23.06;55.23;98685.17;1719812;83;21041;-62
2022/04/02 11:25:52;;;;;;;23.62;4.78;;;;;;;23.21;54.97;98683.73;1680420;85;20135;-62
2022/04/02 11:28:23;;;;;;;17.35;4.87;;;;;;;23.37;53.72;98674.22;1700964;84;21055;-62
2022/04/02 11:31:04;;;;;;;26.23;4.67;;;;;;;22.95;54.56;98672.55;1701030;84;20976;-62
2022/04/02 11:33:34;;;;;;;26.77;5.05;;;;;;;22.85;54.33;98666.83;1700809;84;21111;-62
2022/04/02 11:36:06;;;;;;;21.42;4.55;;;;;;;22.75;54.08;98669.78;1676593;84;21961;-63
2022/04/02 11:38:53;;;;;;;21.02;4.72;;;;;;;22.97;54.24;98670.54;1699323;84;21048;-62
2022/04/02 11:41:31;;;;;;;24.70;5.20;;;;;;;22.96;53.42;98650.05;1679583;84;21099;-62
2022/04/02 11:44:16;;;;;;;23.10;4.62;;;;;;;22.76;53.50;98655.69;1697688;84;20993;-62
2022/04/02 11:46:56;;;;;;;24.02;4.87;;;;;;;22.53;55.30;98660.67;1719089;83;21042;-62
2022/04/02 11:49:40;;;;;;;27.77;5.28;;;;;;;22.80;54.84;98654.30;1692459;83;21051;-62
2022/04/02 11:52:14;;;;;;;30.68;5.42;;;;;;;22.68;53.89;98640.09;1672589;85;21589;-62
2022/04/02 11:54:52;;;;;;;24.95;5.65;;;;;;;22.72;54.46;98655.76;1687643;83;21062;-62
2022/04/02 11:57:20;;;;;;;24.52;5.35;;;;;;;22.86;53.73;98659.28;1711355;84;21043;-62
2022/04/02 12:00:05;;;;;;;23.10;4.80;;;;;;;22.84;54.37;98648.97;1700488;83;21143;-64